sensor_id;sensor_type;location;lat;lon;timestamp;P1;durP1;ratioP1;P2;durP2;ratioP2
54428;SDS011;40337;52.978;6.310;2023-09-08T00:00:47;8.30;;;7.43;;
54428;SDS011;40337;52.978;6.310;2023-09-08T00:03:13;8.80;;;7.38;;
54428;SDS011;40337;52.978;6.310;2023-09-08T00:05:38;8.48;;;7.57;;
54428;SDS011;40337;52.978;6.310;2023-09-08T00:08:04;9.27;;;7.18;;
54428;SDS011;40337;52.978;6.310;2023-09-08T00:10:30;9.68;;;7.97;;
54428;SDS011;40337;52.978;6.310;2023-09-08T00:12:55;8.80;;;7.35;;
54428;SDS011;40337;52.978;6.310;2023-09-08T00:15:21;9.52;;;7.10;;
54428;SDS011;40337;52.978;6.310;2023-09-08T00:17:46;7.85;;;7.00;;
54428;SDS011;40337;52.978;6.310;2023-09-08T00:20:12;9.45;;;7.70;;
54428;SDS011;40337;52.978;6.310;2023-09-08T00:22:38;8.63;;;7.72;;
54428;SDS011;40337;52.978;6.310;2023-09-08T00:25:04;8.70;;;7.80;;
54428;SDS011;40337;52.978;6.310;2023-09-08T00:27:30;10.20;;;7.97;;
54428;SDS011;40337;52.978;6.310;2023-09-08T00:29:57;9.15;;;7.43;;
54428;SDS011;40337;52.978;6.310;2023-09-08T00:32:22;9.48;;;8.48;;
54428;SDS011;40337;52.978;6.310;2023-09-08T00:34:48;9.90;;;8.27;;
54428;SDS011;40337;52.978;6.310;2023-09-08T00:37:13;10.52;;;8.35;;
54428;SDS011;40337;52.978;6.310;2023-09-08T00:39:39;8.95;;;8.05;;
54428;SDS011;40337;52.978;6.310;2023-09-08T00:42:05;11.23;;;8.63;;
54428;SDS011;40337;52.978;6.310;2023-09-08T00:44:32;10.60;;;7.57;;
54428;SDS011;40337;52.978;6.310;2023-09-08T00:46:57;10.50;;;7.53;;
54428;SDS011;40337;52.978;6.310;2023-09-08T00:49:23;9.85;;;8.30;;
54428;SDS011;40337;52.978;6.310;2023-09-08T00:51:49;9.88;;;7.82;;
54428;SDS011;40337;52.978;6.310;2023-09-08T00:54:14;9.25;;;8.35;;
54428;SDS011;40337;52.978;6.310;2023-09-08T00:56:40;9.20;;;8.20;;
54428;SDS011;40337;52.978;6.310;2023-09-08T00:59:07;10.18;;;8.50;;
54428;SDS011;40337;52.978;6.310;2023-09-08T01:01:33;9.55;;;8.30;;
54428;SDS011;40337;52.978;6.310;2023-09-08T01:04:00;9.32;;;8.43;;
54428;SDS011;40337;52.978;6.310;2023-09-08T01:06:26;10.45;;;8.35;;
54428;SDS011;40337;52.978;6.310;2023-09-08T01:08:53;9.70;;;8.70;;
54428;SDS011;40337;52.978;6.310;2023-09-08T01:11:20;9.90;;;8.48;;
54428;SDS011;40337;52.978;6.310;2023-09-08T01:13:47;10.43;;;7.85;;
54428;SDS011;40337;52.978;6.310;2023-09-08T01:16:12;10.57;;;8.90;;
54428;SDS011;40337;52.978;6.310;2023-09-08T01:18:38;10.82;;;8.98;;
54428;SDS011;40337;52.978;6.310;2023-09-08T01:27:24;10.23;;;9.23;;
54428;SDS011;40337;52.978;6.310;2023-09-08T01:29:53;11.77;;;9.50;;
54428;SDS011;40337;52.978;6.310;2023-09-08T01:32:20;10.73;;;9.32;;
54428;SDS011;40337;52.978;6.310;2023-09-08T01:34:46;9.45;;;8.55;;
54428;SDS011;40337;52.978;6.310;2023-09-08T01:37:11;10.95;;;8.77;;
54428;SDS011;40337;52.978;6.310;2023-09-08T01:39:37;10.05;;;9.10;;
54428;SDS011;40337;52.978;6.310;2023-09-08T01:42:02;9.30;;;8.40;;
54428;SDS011;40337;52.978;6.310;2023-09-08T01:44:28;9.65;;;8.65;;
54428;SDS011;40337;52.978;6.310;2023-09-08T01:46:54;10.27;;;9.10;;
54428;SDS011;40337;52.978;6.310;2023-09-08T01:49:22;10.25;;;8.95;;
54428;SDS011;40337;52.978;6.310;2023-09-08T01:51:48;9.75;;;8.77;;
54428;SDS011;40337;52.978;6.310;2023-09-08T01:54:13;9.40;;;8.40;;
54428;SDS011;40337;52.978;6.310;2023-09-08T01:56:39;10.05;;;8.95;;
54428;SDS011;40337;52.978;6.310;2023-09-08T01:59:05;11.25;;;8.85;;
54428;SDS011;40337;52.978;6.310;2023-09-08T02:01:30;11.10;;;9.00;;
54428;SDS011;40337;52.978;6.310;2023-09-08T02:03:56;9.98;;;8.98;;
54428;SDS011;40337;52.978;6.310;2023-09-08T02:06:21;10.23;;;9.10;;
54428;SDS011;40337;52.978;6.310;2023-09-08T02:08:47;10.45;;;8.43;;
54428;SDS011;40337;52.978;6.310;2023-09-08T02:11:12;10.07;;;9.02;;
54428;SDS011;40337;52.978;6.310;2023-09-08T02:13:38;10.23;;;9.15;;
54428;SDS011;40337;52.978;6.310;2023-09-08T02:16:06;9.27;;;8.27;;
54428;SDS011;40337;52.978;6.310;2023-09-08T02:18:32;10.52;;;9.00;;
54428;SDS011;40337;52.978;6.310;2023-09-08T02:20:57;10.27;;;9.20;;
54428;SDS011;40337;52.978;6.310;2023-09-08T02:23:23;10.45;;;9.52;;
54428;SDS011;40337;52.978;6.310;2023-09-08T02:25:49;13.02;;;9.25;;
54428;SDS011;40337;52.978;6.310;2023-09-08T02:28:14;11.40;;;9.20;;
54428;SDS011;40337;52.978;6.310;2023-09-08T02:30:40;10.60;;;9.50;;
54428;SDS011;40337;52.978;6.310;2023-09-08T02:33:05;10.77;;;9.10;;
54428;SDS011;40337;52.978;6.310;2023-09-08T02:35:35;10.52;;;9.00;;
54428;SDS011;40337;52.978;6.310;2023-09-08T02:38:03;10.38;;;9.38;;
54428;SDS011;40337;52.978;6.310;2023-09-08T02:40:28;12.00;;;9.23;;
54428;SDS011;40337;52.978;6.310;2023-09-08T02:42:54;11.60;;;9.63;;
54428;SDS011;40337;52.978;6.310;2023-09-08T02:45:19;10.63;;;9.52;;
54428;SDS011;40337;52.978;6.310;2023-09-08T02:47:45;10.43;;;9.40;;
54428;SDS011;40337;52.978;6.310;2023-09-08T02:50:11;9.60;;;8.70;;
54428;SDS011;40337;52.978;6.310;2023-09-08T02:52:36;10.75;;;9.65;;
54428;SDS011;40337;52.978;6.310;2023-09-08T02:55:02;10.48;;;8.93;;
54428;SDS011;40337;52.978;6.310;2023-09-08T02:57:27;10.25;;;8.98;;
54428;SDS011;40337;52.978;6.310;2023-09-08T02:59:53;10.88;;;9.75;;
54428;SDS011;40337;52.978;6.310;2023-09-08T03:02:21;12.18;;;9.50;;
54428;SDS011;40337;52.978;6.310;2023-09-08T03:04:48;11.82;;;10.05;;
54428;SDS011;40337;52.978;6.310;2023-09-08T03:07:13;10.43;;;8.88;;
54428;SDS011;40337;52.978;6.310;2023-09-08T03:09:39;10.90;;;9.77;;
54428;SDS011;40337;52.978;6.310;2023-09-08T03:12:05;10.38;;;9.35;;
54428;SDS011;40337;52.978;6.310;2023-09-08T03:14:30;9.60;;;8.50;;
54428;SDS011;40337;52.978;6.310;2023-09-08T03:16:56;11.25;;;10.13;;
54428;SDS011;40337;52.978;6.310;2023-09-08T03:19:21;10.77;;;9.68;;
54428;SDS011;40337;52.978;6.310;2023-09-08T03:21:47;10.63;;;9.48;;
54428;SDS011;40337;52.978;6.310;2023-09-08T03:24:12;10.82;;;9.82;;
54428;SDS011;40337;52.978;6.310;2023-09-08T03:26:38;11.13;;;10.00;;
54428;SDS011;40337;52.978;6.310;2023-09-08T03:29:05;10.98;;;9.90;;
54428;SDS011;40337;52.978;6.310;2023-09-08T03:31:31;10.95;;;9.85;;
54428;SDS011;40337;52.978;6.310;2023-09-08T03:33:57;10.85;;;9.73;;
54428;SDS011;40337;52.978;6.310;2023-09-08T03:36:22;10.90;;;9.80;;
54428;SDS011;40337;52.978;6.310;2023-09-08T03:38:49;11.13;;;10.02;;
54428;SDS011;40337;52.978;6.310;2023-09-08T03:41:15;11.38;;;10.15;;
54428;SDS011;40337;52.978;6.310;2023-09-08T03:43:42;11.60;;;10.45;;
54428;SDS011;40337;52.978;6.310;2023-09-08T03:46:07;12.15;;;10.95;;
54428;SDS011;40337;52.978;6.310;2023-09-08T03:48:33;13.13;;;11.32;;
54428;SDS011;40337;52.978;6.310;2023-09-08T03:50:58;13.23;;;11.82;;
54428;SDS011;40337;52.978;6.310;2023-09-08T03:53:24;12.40;;;11.07;;
54428;SDS011;40337;52.978;6.310;2023-09-08T03:55:50;12.27;;;10.95;;
54428;SDS011;40337;52.978;6.310;2023-09-08T03:58:16;14.38;;;12.23;;
54428;SDS011;40337;52.978;6.310;2023-09-08T04:00:41;14.20;;;12.73;;
54428;SDS011;40337;52.978;6.310;2023-09-08T04:03:07;14.38;;;12.88;;
54428;SDS011;40337;52.978;6.310;2023-09-08T04:05:33;14.32;;;12.93;;
54428;SDS011;40337;52.978;6.310;2023-09-08T04:07:59;14.73;;;13.23;;
54428;SDS011;40337;52.978;6.310;2023-09-08T04:10:24;15.30;;;13.07;;
54428;SDS011;40337;52.978;6.310;2023-09-08T04:12:50;14.75;;;13.35;;
54428;SDS011;40337;52.978;6.310;2023-09-08T04:15:15;14.43;;;12.98;;
54428;SDS011;40337;52.978;6.310;2023-09-08T04:17:41;13.93;;;12.50;;
54428;SDS011;40337;52.978;6.310;2023-09-08T04:20:07;12.65;;;11.35;;
54428;SDS011;40337;52.978;6.310;2023-09-08T04:22:33;13.68;;;12.18;;
54428;SDS011;40337;52.978;6.310;2023-09-08T04:24:59;13.77;;;11.75;;
54428;SDS011;40337;52.978;6.310;2023-09-08T04:27:26;13.55;;;12.15;;
54428;SDS011;40337;52.978;6.310;2023-09-08T04:29:51;12.75;;;11.55;;
54428;SDS011;40337;52.978;6.310;2023-09-08T04:32:17;11.90;;;10.75;;
54428;SDS011;40337;52.978;6.310;2023-09-08T04:34:43;12.90;;;11.70;;
54428;SDS011;40337;52.978;6.310;2023-09-08T04:37:08;13.50;;;12.05;;
54428;SDS011;40337;52.978;6.310;2023-09-08T04:39:34;13.63;;;12.32;;
54428;SDS011;40337;52.978;6.310;2023-09-08T04:42:02;12.57;;;11.32;;
54428;SDS011;40337;52.978;6.310;2023-09-08T04:44:27;11.93;;;10.82;;
54428;SDS011;40337;52.978;6.310;2023-09-08T04:46:53;13.00;;;11.70;;
54428;SDS011;40337;52.978;6.310;2023-09-08T04:49:19;13.32;;;11.93;;
54428;SDS011;40337;52.978;6.310;2023-09-08T04:51:45;12.77;;;11.55;;
54428;SDS011;40337;52.978;6.310;2023-09-08T04:54:10;13.55;;;11.93;;
54428;SDS011;40337;52.978;6.310;2023-09-08T04:56:36;12.40;;;11.23;;
54428;SDS011;40337;52.978;6.310;2023-09-08T04:59:03;13.18;;;11.73;;
54428;SDS011;40337;52.978;6.310;2023-09-08T05:01:28;13.38;;;12.07;;
54428;SDS011;40337;52.978;6.310;2023-09-08T05:03:57;12.52;;;11.25;;
54428;SDS011;40337;52.978;6.310;2023-09-08T05:06:24;12.80;;;11.52;;
54428;SDS011;40337;52.978;6.310;2023-09-08T05:08:50;12.27;;;11.13;;
54428;SDS011;40337;52.978;6.310;2023-09-08T05:11:16;12.55;;;11.32;;
54428;SDS011;40337;52.978;6.310;2023-09-08T05:13:42;12.48;;;11.18;;
54428;SDS011;40337;52.978;6.310;2023-09-08T05:16:07;12.70;;;11.50;;
54428;SDS011;40337;52.978;6.310;2023-09-08T05:18:37;13.77;;;11.93;;
54428;SDS011;40337;52.978;6.310;2023-09-08T05:21:03;12.02;;;10.93;;
54428;SDS011;40337;52.978;6.310;2023-09-08T05:23:29;13.02;;;11.43;;
54428;SDS011;40337;52.978;6.310;2023-09-08T05:25:55;13.02;;;11.68;;
54428;SDS011;40337;52.978;6.310;2023-09-08T05:28:20;12.35;;;11.15;;
54428;SDS011;40337;52.978;6.310;2023-09-08T05:30:46;13.70;;;11.82;;
54428;SDS011;40337;52.978;6.310;2023-09-08T05:33:11;13.63;;;12.32;;
54428;SDS011;40337;52.978;6.310;2023-09-08T05:35:37;13.60;;;12.07;;
54428;SDS011;40337;52.978;6.310;2023-09-08T05:38:03;13.40;;;12.00;;
54428;SDS011;40337;52.978;6.310;2023-09-08T05:40:29;12.50;;;11.23;;
54428;SDS011;40337;52.978;6.310;2023-09-08T05:42:54;13.68;;;12.27;;
54428;SDS011;40337;52.978;6.310;2023-09-08T05:45:20;14.20;;;12.70;;
54428;SDS011;40337;52.978;6.310;2023-09-08T05:47:45;12.68;;;11.38;;
54428;SDS011;40337;52.978;6.310;2023-09-08T05:50:11;13.90;;;12.45;;
54428;SDS011;40337;52.978;6.310;2023-09-08T05:52:36;15.30;;;12.43;;
54428;SDS011;40337;52.978;6.310;2023-09-08T05:55:02;12.77;;;11.43;;
54428;SDS011;40337;52.978;6.310;2023-09-08T05:57:28;13.60;;;12.20;;
54428;SDS011;40337;52.978;6.310;2023-09-08T05:59:53;13.57;;;12.25;;
54428;SDS011;40337;52.978;6.310;2023-09-08T06:02:19;12.98;;;11.57;;
54428;SDS011;40337;52.978;6.310;2023-09-08T06:04:44;13.57;;;11.70;;
54428;SDS011;40337;52.978;6.310;2023-09-08T06:07:10;13.45;;;11.77;;
54428;SDS011;40337;52.978;6.310;2023-09-08T06:09:35;15.20;;;11.63;;
54428;SDS011;40337;52.978;6.310;2023-09-08T06:12:01;14.18;;;12.50;;
54428;SDS011;40337;52.978;6.310;2023-09-08T06:14:26;14.55;;;12.18;;
54428;SDS011;40337;52.978;6.310;2023-09-08T06:16:52;13.88;;;12.10;;
54428;SDS011;40337;52.978;6.310;2023-09-08T06:19:18;13.27;;;11.90;;
54428;SDS011;40337;52.978;6.310;2023-09-08T06:21:43;14.70;;;11.88;;
54428;SDS011;40337;52.978;6.310;2023-09-08T06:24:09;11.00;;;9.98;;
54428;SDS011;40337;52.978;6.310;2023-09-08T06:26:34;13.20;;;11.90;;
54428;SDS011;40337;52.978;6.310;2023-09-08T06:29:02;13.95;;;12.45;;
54428;SDS011;40337;52.978;6.310;2023-09-08T06:31:27;12.85;;;11.55;;
54428;SDS011;40337;52.978;6.310;2023-09-08T06:33:53;12.90;;;11.60;;
54428;SDS011;40337;52.978;6.310;2023-09-08T06:36:18;14.07;;;12.68;;
54428;SDS011;40337;52.978;6.310;2023-09-08T06:38:44;14.02;;;11.75;;
54428;SDS011;40337;52.978;6.310;2023-09-08T06:41:10;13.65;;;11.55;;
54428;SDS011;40337;52.978;6.310;2023-09-08T06:43:36;13.18;;;11.77;;
54428;SDS011;40337;52.978;6.310;2023-09-08T06:46:02;12.95;;;11.32;;
54428;SDS011;40337;52.978;6.310;2023-09-08T06:48:28;14.93;;;12.30;;
54428;SDS011;40337;52.978;6.310;2023-09-08T06:50:54;14.40;;;11.85;;
54428;SDS011;40337;52.978;6.310;2023-09-08T06:53:21;13.13;;;11.80;;
54428;SDS011;40337;52.978;6.310;2023-09-08T06:55:47;13.50;;;12.00;;
54428;SDS011;40337;52.978;6.310;2023-09-08T06:58:13;11.77;;;10.60;;
54428;SDS011;40337;52.978;6.310;2023-09-08T07:00:40;12.93;;;11.55;;
54428;SDS011;40337;52.978;6.310;2023-09-08T07:03:05;13.50;;;12.18;;
54428;SDS011;40337;52.978;6.310;2023-09-08T07:05:31;12.13;;;10.85;;
54428;SDS011;40337;52.978;6.310;2023-09-08T07:07:57;12.27;;;11.05;;
54428;SDS011;40337;52.978;6.310;2023-09-08T07:10:22;13.15;;;11.70;;
54428;SDS011;40337;52.978;6.310;2023-09-08T07:12:48;12.90;;;11.18;;
54428;SDS011;40337;52.978;6.310;2023-09-08T07:15:14;11.15;;;10.10;;
54428;SDS011;40337;52.978;6.310;2023-09-08T07:17:39;11.95;;;10.75;;
54428;SDS011;40337;52.978;6.310;2023-09-08T07:20:05;12.55;;;11.35;;
54428;SDS011;40337;52.978;6.310;2023-09-08T07:22:31;12.77;;;11.30;;
54428;SDS011;40337;52.978;6.310;2023-09-08T07:24:57;12.95;;;11.23;;
54428;SDS011;40337;52.978;6.310;2023-09-08T07:27:22;11.38;;;10.13;;
54428;SDS011;40337;52.978;6.310;2023-09-08T07:29:48;12.55;;;10.60;;
54428;SDS011;40337;52.978;6.310;2023-09-08T07:32:14;11.27;;;10.18;;
54428;SDS011;40337;52.978;6.310;2023-09-08T07:34:41;11.40;;;9.80;;
54428;SDS011;40337;52.978;6.310;2023-09-08T07:37:06;11.93;;;9.63;;
54428;SDS011;40337;52.978;6.310;2023-09-08T07:39:32;10.18;;;9.18;;
54428;SDS011;40337;52.978;6.310;2023-09-08T07:41:58;10.43;;;9.32;;
54428;SDS011;40337;52.978;6.310;2023-09-08T07:44:24;10.50;;;9.43;;
54428;SDS011;40337;52.978;6.310;2023-09-08T07:46:49;9.48;;;8.48;;
54428;SDS011;40337;52.978;6.310;2023-09-08T07:49:16;10.93;;;9.05;;
54428;SDS011;40337;52.978;6.310;2023-09-08T07:51:46;9.18;;;7.70;;
54428;SDS011;40337;52.978;6.310;2023-09-08T07:54:12;9.98;;;8.98;;
54428;SDS011;40337;52.978;6.310;2023-09-08T07:56:38;9.35;;;8.20;;
54428;SDS011;40337;52.978;6.310;2023-09-08T07:59:05;9.02;;;8.10;;
54428;SDS011;40337;52.978;6.310;2023-09-08T08:01:31;9.10;;;8.02;;
54428;SDS011;40337;52.978;6.310;2023-09-08T08:03:57;9.48;;;8.38;;
54428;SDS011;40337;52.978;6.310;2023-09-08T08:06:23;8.90;;;8.00;;
54428;SDS011;40337;52.978;6.310;2023-09-08T08:08:48;9.82;;;7.68;;
54428;SDS011;40337;52.978;6.310;2023-09-08T08:11:14;8.27;;;7.10;;
54428;SDS011;40337;52.978;6.310;2023-09-08T08:13:42;8.70;;;7.63;;
54428;SDS011;40337;52.978;6.310;2023-09-08T08:16:08;7.68;;;6.95;;
54428;SDS011;40337;52.978;6.310;2023-09-08T08:18:34;7.65;;;6.85;;
54428;SDS011;40337;52.978;6.310;2023-09-08T08:20:59;9.55;;;7.05;;
54428;SDS011;40337;52.978;6.310;2023-09-08T08:23:28;8.88;;;7.78;;
54428;SDS011;40337;52.978;6.310;2023-09-08T08:25:55;9.75;;;7.07;;
54428;SDS011;40337;52.978;6.310;2023-09-08T08:28:21;8.75;;;6.55;;
54428;SDS011;40337;52.978;6.310;2023-09-08T08:30:46;7.78;;;6.78;;
54428;SDS011;40337;52.978;6.310;2023-09-08T08:33:12;8.45;;;6.93;;
54428;SDS011;40337;52.978;6.310;2023-09-08T08:35:38;9.80;;;7.20;;
54428;SDS011;40337;52.978;6.310;2023-09-08T08:38:04;7.65;;;6.85;;
54428;SDS011;40337;52.978;6.310;2023-09-08T08:40:30;7.28;;;6.35;;
54428;SDS011;40337;52.978;6.310;2023-09-08T08:42:56;9.30;;;6.28;;
54428;SDS011;40337;52.978;6.310;2023-09-08T08:45:23;8.90;;;6.72;;
54428;SDS011;40337;52.978;6.310;2023-09-08T08:47:52;8.13;;;7.03;;
54428;SDS011;40337;52.978;6.310;2023-09-08T08:50:19;7.82;;;6.85;;
54428;SDS011;40337;52.978;6.310;2023-09-08T08:52:45;7.93;;;6.30;;
54428;SDS011;40337;52.978;6.310;2023-09-08T08:55:11;6.90;;;6.20;;
54428;SDS011;40337;52.978;6.310;2023-09-08T08:57:37;8.32;;;6.90;;
54428;SDS011;40337;52.978;6.310;2023-09-08T09:00:07;8.25;;;6.50;;
54428;SDS011;40337;52.978;6.310;2023-09-08T09:02:35;8.13;;;6.95;;
54428;SDS011;40337;52.978;6.310;2023-09-08T09:05:04;8.70;;;6.18;;
54428;SDS011;40337;52.978;6.310;2023-09-08T09:07:31;11.52;;;6.03;;
54428;SDS011;40337;52.978;6.310;2023-09-08T09:09:57;7.72;;;5.68;;
54428;SDS011;40337;52.978;6.310;2023-09-08T09:12:23;7.90;;;6.32;;
54428;SDS011;40337;52.978;6.310;2023-09-08T09:14:52;8.63;;;6.40;;
54428;SDS011;40337;52.978;6.310;2023-09-08T09:17:18;7.05;;;5.80;;
54428;SDS011;40337;52.978;6.310;2023-09-08T09:19:44;6.63;;;5.47;;
54428;SDS011;40337;52.978;6.310;2023-09-08T09:22:09;9.07;;;5.45;;
54428;SDS011;40337;52.978;6.310;2023-09-08T09:27:11;8.27;;;5.32;;
54428;SDS011;40337;52.978;6.310;2023-09-08T09:29:44;6.93;;;5.57;;
54428;SDS011;40337;52.978;6.310;2023-09-08T09:32:11;6.22;;;4.78;;
54428;SDS011;40337;52.978;6.310;2023-09-08T09:34:46;7.07;;;5.22;;
54428;SDS011;40337;52.978;6.310;2023-09-08T09:37:14;7.53;;;4.95;;
54428;SDS011;40337;52.978;6.310;2023-09-08T09:39:39;5.93;;;5.13;;
54428;SDS011;40337;52.978;6.310;2023-09-08T09:42:05;6.38;;;5.20;;
54428;SDS011;40337;52.978;6.310;2023-09-08T09:44:31;7.93;;;5.10;;
54428;SDS011;40337;52.978;6.310;2023-09-08T09:46:56;7.35;;;5.00;;
54428;SDS011;40337;52.978;6.310;2023-09-08T09:49:23;7.63;;;4.97;;
54428;SDS011;40337;52.978;6.310;2023-09-08T09:51:52;5.65;;;4.40;;
54428;SDS011;40337;52.978;6.310;2023-09-08T09:54:18;5.80;;;4.75;;
54428;SDS011;40337;52.978;6.310;2023-09-08T09:56:44;6.00;;;4.90;;
54428;SDS011;40337;52.978;6.310;2023-09-08T09:59:12;5.78;;;4.80;;
54428;SDS011;40337;52.978;6.310;2023-09-08T10:01:39;6.97;;;4.43;;
54428;SDS011;40337;52.978;6.310;2023-09-08T10:04:06;6.53;;;4.65;;
54428;SDS011;40337;52.978;6.310;2023-09-08T10:06:36;5.53;;;4.40;;
54428;SDS011;40337;52.978;6.310;2023-09-08T10:09:03;5.40;;;4.63;;
54428;SDS011;40337;52.978;6.310;2023-09-08T10:11:49;6.43;;;4.63;;
54428;SDS011;40337;52.978;6.310;2023-09-08T10:14:15;7.03;;;4.60;;
54428;SDS011;40337;52.978;6.310;2023-09-08T10:16:43;6.43;;;4.50;;
54428;SDS011;40337;52.978;6.310;2023-09-08T10:19:14;7.40;;;4.70;;
54428;SDS011;40337;52.978;6.310;2023-09-08T10:21:42;6.28;;;4.40;;
54428;SDS011;40337;52.978;6.310;2023-09-08T10:24:23;6.03;;;4.75;;
54428;SDS011;40337;52.978;6.310;2023-09-08T10:27:10;8.02;;;4.43;;
54428;SDS011;40337;52.978;6.310;2023-09-08T10:29:37;5.28;;;4.35;;
54428;SDS011;40337;52.978;6.310;2023-09-08T10:32:03;5.53;;;4.38;;
54428;SDS011;40337;52.978;6.310;2023-09-08T10:34:30;5.85;;;4.30;;
54428;SDS011;40337;52.978;6.310;2023-09-08T10:36:57;6.15;;;4.13;;
54428;SDS011;40337;52.978;6.310;2023-09-08T10:39:30;5.95;;;4.50;;
54428;SDS011;40337;52.978;6.310;2023-09-08T10:47:14;5.63;;;4.20;;
54428;SDS011;40337;52.978;6.310;2023-09-08T10:49:45;6.95;;;4.63;;
54428;SDS011;40337;52.978;6.310;2023-09-08T10:52:11;5.53;;;4.82;;
54428;SDS011;40337;52.978;6.310;2023-09-08T10:54:41;5.53;;;4.50;;
54428;SDS011;40337;52.978;6.310;2023-09-08T10:57:13;6.22;;;4.07;;
54428;SDS011;40337;52.978;6.310;2023-09-08T10:59:40;6.97;;;4.45;;
54428;SDS011;40337;52.978;6.310;2023-09-08T11:02:37;6.85;;;4.28;;
54428;SDS011;40337;52.978;6.310;2023-09-08T11:05:06;5.70;;;4.32;;
54428;SDS011;40337;52.978;6.310;2023-09-08T11:07:35;5.65;;;4.50;;
54428;SDS011;40337;52.978;6.310;2023-09-08T11:10:04;6.82;;;4.45;;
54428;SDS011;40337;52.978;6.310;2023-09-08T11:12:31;6.63;;;4.43;;
54428;SDS011;40337;52.978;6.310;2023-09-08T11:14:57;7.18;;;3.92;;
54428;SDS011;40337;52.978;6.310;2023-09-08T11:17:26;6.82;;;4.32;;
54428;SDS011;40337;52.978;6.310;2023-09-08T11:19:53;6.30;;;4.47;;
54428;SDS011;40337;52.978;6.310;2023-09-08T11:22:21;6.00;;;4.40;;
54428;SDS011;40337;52.978;6.310;2023-09-08T11:24:51;8.57;;;4.65;;
54428;SDS011;40337;52.978;6.310;2023-09-08T11:27:17;5.57;;;4.18;;
54428;SDS011;40337;52.978;6.310;2023-09-08T11:29:43;7.15;;;4.20;;
54428;SDS011;40337;52.978;6.310;2023-09-08T11:32:10;5.45;;;4.25;;
54428;SDS011;40337;52.978;6.310;2023-09-08T11:34:36;6.43;;;4.30;;
54428;SDS011;40337;52.978;6.310;2023-09-08T11:37:16;5.22;;;4.07;;
54428;SDS011;40337;52.978;6.310;2023-09-08T11:39:43;5.63;;;4.30;;
54428;SDS011;40337;52.978;6.310;2023-09-08T11:42:11;6.07;;;4.10;;
54428;SDS011;40337;52.978;6.310;2023-09-08T11:44:37;5.38;;;4.10;;
54428;SDS011;40337;52.978;6.310;2023-09-08T11:47:04;6.20;;;4.10;;
54428;SDS011;40337;52.978;6.310;2023-09-08T11:49:41;6.63;;;4.28;;
54428;SDS011;40337;52.978;6.310;2023-09-08T11:52:08;5.10;;;4.20;;
54428;SDS011;40337;52.978;6.310;2023-09-08T11:54:34;5.30;;;3.70;;
54428;SDS011;40337;52.978;6.310;2023-09-08T11:57:02;5.75;;;4.22;;
54428;SDS011;40337;52.978;6.310;2023-09-08T11:59:31;6.00;;;3.80;;
54428;SDS011;40337;52.978;6.310;2023-09-08T12:01:58;6.75;;;3.88;;
54428;SDS011;40337;52.978;6.310;2023-09-08T12:04:24;5.57;;;3.72;;
54428;SDS011;40337;52.978;6.310;2023-09-08T12:06:51;4.80;;;3.53;;
54428;SDS011;40337;52.978;6.310;2023-09-08T12:09:18;6.00;;;3.50;;
54428;SDS011;40337;52.978;6.310;2023-09-08T12:11:45;5.05;;;3.72;;
54428;SDS011;40337;52.978;6.310;2023-09-08T12:14:12;7.38;;;4.03;;
54428;SDS011;40337;52.978;6.310;2023-09-08T12:16:39;4.50;;;3.53;;
54428;SDS011;40337;52.978;6.310;2023-09-08T12:19:05;4.65;;;3.60;;
54428;SDS011;40337;52.978;6.310;2023-09-08T12:21:31;5.82;;;3.97;;
54428;SDS011;40337;52.978;6.310;2023-09-08T12:24:00;4.28;;;3.30;;
54428;SDS011;40337;52.978;6.310;2023-09-08T12:26:26;4.95;;;3.70;;
54428;SDS011;40337;52.978;6.310;2023-09-08T12:28:52;5.57;;;3.95;;
54428;SDS011;40337;52.978;6.310;2023-09-08T12:31:18;4.63;;;3.65;;
54428;SDS011;40337;52.978;6.310;2023-09-08T12:33:44;6.25;;;4.03;;
54428;SDS011;40337;52.978;6.310;2023-09-08T12:36:13;5.68;;;3.72;;
54428;SDS011;40337;52.978;6.310;2023-09-08T12:38:40;6.65;;;3.80;;
54428;SDS011;40337;52.978;6.310;2023-09-08T12:41:05;4.45;;;3.58;;
54428;SDS011;40337;52.978;6.310;2023-09-08T12:43:31;4.88;;;3.72;;
54428;SDS011;40337;52.978;6.310;2023-09-08T12:45:56;5.25;;;3.40;;
54428;SDS011;40337;52.978;6.310;2023-09-08T12:48:22;7.15;;;3.67;;
54428;SDS011;40337;52.978;6.310;2023-09-08T12:50:48;5.82;;;3.65;;
54428;SDS011;40337;52.978;6.310;2023-09-08T12:53:14;6.07;;;3.50;;
54428;SDS011;40337;52.978;6.310;2023-09-08T12:55:40;5.22;;;3.58;;
54428;SDS011;40337;52.978;6.310;2023-09-08T12:58:05;6.00;;;3.80;;
54428;SDS011;40337;52.978;6.310;2023-09-08T13:00:31;4.10;;;3.22;;
54428;SDS011;40337;52.978;6.310;2023-09-08T13:02:56;6.22;;;3.90;;
54428;SDS011;40337;52.978;6.310;2023-09-08T13:05:22;5.20;;;3.42;;
54428;SDS011;40337;52.978;6.310;2023-09-08T13:07:47;5.32;;;3.60;;
54428;SDS011;40337;52.978;6.310;2023-09-08T13:10:13;5.35;;;3.80;;
54428;SDS011;40337;52.978;6.310;2023-09-08T13:12:38;4.35;;;3.42;;
54428;SDS011;40337;52.978;6.310;2023-09-08T13:15:04;6.22;;;3.80;;
54428;SDS011;40337;52.978;6.310;2023-09-08T13:17:30;4.65;;;3.53;;
54428;SDS011;40337;52.978;6.310;2023-09-08T13:19:56;5.93;;;3.92;;
54428;SDS011;40337;52.978;6.310;2023-09-08T13:22:21;5.28;;;3.88;;
54428;SDS011;40337;52.978;6.310;2023-09-08T13:24:47;5.60;;;3.75;;
54428;SDS011;40337;52.978;6.310;2023-09-08T13:27:12;4.68;;;4.00;;
54428;SDS011;40337;52.978;6.310;2023-09-08T13:29:40;5.32;;;3.58;;
54428;SDS011;40337;52.978;6.310;2023-09-08T13:32:06;7.00;;;3.90;;
54428;SDS011;40337;52.978;6.310;2023-09-08T13:34:31;4.20;;;3.60;;
54428;SDS011;40337;52.978;6.310;2023-09-08T13:36:57;4.68;;;3.78;;
54428;SDS011;40337;52.978;6.310;2023-09-08T13:39:23;4.43;;;3.58;;
54428;SDS011;40337;52.978;6.310;2023-09-08T13:41:55;5.85;;;3.63;;
54428;SDS011;40337;52.978;6.310;2023-09-08T13:44:24;4.65;;;3.47;;
54428;SDS011;40337;52.978;6.310;2023-09-08T13:46:50;7.47;;;3.85;;
54428;SDS011;40337;52.978;6.310;2023-09-08T13:49:17;4.50;;;3.80;;
54428;SDS011;40337;52.978;6.310;2023-09-08T13:51:43;7.90;;;3.90;;
54428;SDS011;40337;52.978;6.310;2023-09-08T13:54:10;4.75;;;3.45;;
54428;SDS011;40337;52.978;6.310;2023-09-08T13:56:40;8.35;;;3.63;;
54428;SDS011;40337;52.978;6.310;2023-09-08T13:59:06;5.60;;;3.40;;
54428;SDS011;40337;52.978;6.310;2023-09-08T14:01:33;5.22;;;3.72;;
54428;SDS011;40337;52.978;6.310;2023-09-08T14:03:59;4.57;;;3.58;;
54428;SDS011;40337;52.978;6.310;2023-09-08T14:06:25;4.95;;;3.83;;
54428;SDS011;40337;52.978;6.310;2023-09-08T14:08:52;6.13;;;3.95;;
54428;SDS011;40337;52.978;6.310;2023-09-08T14:11:18;6.50;;;3.83;;
54428;SDS011;40337;52.978;6.310;2023-09-08T14:13:44;7.32;;;3.83;;
54428;SDS011;40337;52.978;6.310;2023-09-08T14:16:13;4.35;;;3.45;;
54428;SDS011;40337;52.978;6.310;2023-09-08T14:18:39;8.05;;;3.80;;
54428;SDS011;40337;52.978;6.310;2023-09-08T14:21:05;5.38;;;3.72;;
54428;SDS011;40337;52.978;6.310;2023-09-08T14:23:31;4.45;;;3.70;;
54428;SDS011;40337;52.978;6.310;2023-09-08T14:25:59;4.85;;;3.50;;
54428;SDS011;40337;52.978;6.310;2023-09-08T14:28:24;5.25;;;3.60;;
54428;SDS011;40337;52.978;6.310;2023-09-08T14:30:51;5.10;;;3.83;;
54428;SDS011;40337;52.978;6.310;2023-09-08T14:33:17;6.32;;;3.83;;
54428;SDS011;40337;52.978;6.310;2023-09-08T14:35:42;5.18;;;3.90;;
54428;SDS011;40337;52.978;6.310;2023-09-08T14:38:09;6.50;;;4.05;;
54428;SDS011;40337;52.978;6.310;2023-09-08T14:40:34;6.88;;;3.80;;
54428;SDS011;40337;52.978;6.310;2023-09-08T14:43:00;5.90;;;3.78;;
54428;SDS011;40337;52.978;6.310;2023-09-08T14:45:25;6.15;;;3.78;;
54428;SDS011;40337;52.978;6.310;2023-09-08T14:47:54;7.85;;;3.63;;